createdAt,value
2022-09-06T00:01:47.250Z,2.77
2022-09-06T00:04:15.632Z,3.03
2022-09-06T00:06:43.252Z,2.77
2022-09-06T00:09:10.827Z,2.40
2022-09-06T00:11:38.486Z,2.50
2022-09-06T00:14:06.061Z,2.00
2022-09-06T00:16:33.582Z,3.27
2022-09-06T00:19:01.163Z,3.07
2022-09-06T00:21:29.655Z,3.00
2022-09-06T00:23:57.205Z,2.77
2022-09-06T00:26:24.673Z,2.60
2022-09-06T00:28:52.195Z,2.10
2022-09-06T00:31:24.148Z,2.30
2022-09-06T00:33:52.146Z,2.80
2022-09-06T00:36:20.477Z,3.23
2022-09-06T00:38:48.141Z,3.83
2022-09-06T00:41:16.469Z,3.77
2022-09-06T00:43:44.377Z,3.67
2022-09-06T00:46:17.993Z,3.33
2022-09-06T00:48:46.061Z,3.70
2022-09-06T00:51:14.562Z,3.43
2022-09-06T00:53:42.110Z,4.00
2022-09-06T00:56:10.057Z,4.00
2022-09-06T00:58:37.834Z,3.40
2022-09-06T01:01:05.535Z,3.33
2022-09-06T01:03:33.610Z,3.70
2022-09-06T01:06:07.002Z,3.43
2022-09-06T01:08:37.245Z,4.43
2022-09-06T01:11:22.747Z,4.30
2022-09-06T01:13:50.301Z,4.40
2022-09-06T01:16:29.967Z,4.03
2022-09-06T01:18:57.445Z,3.90
2022-09-06T01:21:27.744Z,3.73
2022-09-06T01:24:13.386Z,5.00
2022-09-06T01:26:56.529Z,4.00
2022-09-06T01:29:34.008Z,4.07
2022-09-06T01:32:12.404Z,4.20
2022-09-06T01:34:46.200Z,5.00
2022-09-06T01:37:15.021Z,4.27
2022-09-06T01:39:42.946Z,4.00
2022-09-06T01:42:19.651Z,4.30
2022-09-06T01:44:51.975Z,4.47
2022-09-06T01:47:30.449Z,4.10
2022-09-06T01:50:02.588Z,4.00
2022-09-06T01:52:32.229Z,3.37
2022-09-06T01:55:02.137Z,3.30
2022-09-06T01:57:48.950Z,3.30
2022-09-06T02:00:17.629Z,3.23
2022-09-06T02:03:03.605Z,3.20
2022-09-06T02:05:33.166Z,2.60
2022-09-06T02:08:10.261Z,2.57
2022-09-06T02:10:37.753Z,2.70
2022-09-06T02:13:06.541Z,2.97
2022-09-06T02:15:35.645Z,2.60
2022-09-06T02:18:06.989Z,3.30
2022-09-06T02:20:37.370Z,2.80
2022-09-06T02:23:06.752Z,2.97
2022-09-06T02:25:42.603Z,4.20
2022-09-06T02:28:11.163Z,3.43
2022-09-06T02:30:45.068Z,2.97
2022-09-06T02:33:18.090Z,2.77
2022-09-06T02:35:46.875Z,2.87
2022-09-06T02:38:14.831Z,3.80
2022-09-06T02:40:42.882Z,3.73
2022-09-06T02:43:10.418Z,2.90
2022-09-06T02:45:38.149Z,3.07
2022-09-06T02:48:05.842Z,3.20
2022-09-06T02:50:33.346Z,3.70
2022-09-06T02:53:03.631Z,3.80
2022-09-06T02:55:31.270Z,3.90
2022-09-06T02:57:58.781Z,3.87
2022-09-06T03:00:27.730Z,3.30
2022-09-06T03:02:55.617Z,3.87
2022-09-06T03:05:23.946Z,4.13
2022-09-06T03:07:51.538Z,3.67
2022-09-06T03:10:19.239Z,4.30
2022-09-06T03:12:47.044Z,4.30
2022-09-06T03:15:15.279Z,4.10
2022-09-06T03:17:43.064Z,4.33
2022-09-06T03:20:11.591Z,4.13
2022-09-06T03:22:40.145Z,4.43
2022-09-06T03:25:08.320Z,4.10
2022-09-06T03:27:35.870Z,4.60
2022-09-06T03:30:03.754Z,4.03
2022-09-06T03:32:33.395Z,4.53
2022-09-06T03:35:00.921Z,4.67
2022-09-06T03:37:31.834Z,3.63
2022-09-06T03:40:02.111Z,4.63
2022-09-06T03:42:29.700Z,4.43
2022-09-06T03:44:57.205Z,4.57
2022-09-06T03:47:25.111Z,4.13
2022-09-06T03:49:52.630Z,4.13
2022-09-06T03:52:20.162Z,4.37
2022-09-06T03:54:47.682Z,4.03
2022-09-06T03:57:18.392Z,4.13
2022-09-06T03:59:48.903Z,4.23
2022-09-06T04:02:16.523Z,4.70
2022-09-06T04:04:44.106Z,4.10
2022-09-06T04:07:13.646Z,4.47
2022-09-06T04:09:43.360Z,4.37
2022-09-06T04:12:12.863Z,4.27
2022-09-06T04:14:42.196Z,5.30
2022-09-06T04:17:12.673Z,5.83
2022-09-06T04:19:42.321Z,4.60
2022-09-06T04:22:09.555Z,4.67
2022-09-06T04:24:39.061Z,4.27
2022-09-06T04:27:06.897Z,4.40
2022-09-06T04:29:36.145Z,4.73
2022-09-06T04:32:06.018Z,5.27
2022-09-06T04:34:33.664Z,4.77
2022-09-06T04:37:00.803Z,5.17
2022-09-06T04:39:28.078Z,5.23
2022-09-06T04:41:55.303Z,4.87
2022-09-06T04:44:22.928Z,7.20
2022-09-06T04:46:50.521Z,5.40
2022-09-06T04:49:18.076Z,5.83
2022-09-06T04:51:45.665Z,4.90
2022-09-06T04:54:13.146Z,5.97
2022-09-06T04:56:40.670Z,5.60
2022-09-06T04:59:08.164Z,6.13
2022-09-06T05:01:36.851Z,5.83
2022-09-06T05:04:04.404Z,6.93
2022-09-06T05:06:31.960Z,6.30
2022-09-06T05:08:59.618Z,6.97
2022-09-06T05:11:27.154Z,7.03
2022-09-06T05:13:54.616Z,8.10
2022-09-06T05:16:21.764Z,6.90
2022-09-06T05:18:49.017Z,6.10
2022-09-06T05:21:18.721Z,6.93
2022-09-06T05:23:45.970Z,7.23
2022-09-06T05:26:13.192Z,6.40
2022-09-06T05:28:40.415Z,6.00
2022-09-06T05:31:24.886Z,5.40
2022-09-06T05:33:55.154Z,5.73
2022-09-06T05:36:22.704Z,4.87
2022-09-06T05:38:53.754Z,4.20
2022-09-06T05:41:22.077Z,4.70
2022-09-06T05:43:49.704Z,4.70
2022-09-06T05:46:17.838Z,4.10
2022-09-06T05:48:45.585Z,4.43
2022-09-06T05:51:13.745Z,4.40
2022-09-06T05:53:43.552Z,4.03
2022-09-06T05:56:12.745Z,4.17
2022-09-06T05:58:40.240Z,4.40
2022-09-06T06:01:14.795Z,4.00
2022-09-06T06:03:42.769Z,4.17
2022-09-06T06:06:10.145Z,4.47
2022-09-06T06:08:37.825Z,4.67
2022-09-06T06:11:05.367Z,5.23
2022-09-06T06:13:32.892Z,5.80
2022-09-06T06:16:00.408Z,5.00
2022-09-06T06:18:28.164Z,5.47
2022-09-06T06:21:07.699Z,5.40
2022-09-06T06:23:35.245Z,6.70
2022-09-06T06:26:02.782Z,6.27
2022-09-06T06:28:30.449Z,6.13
2022-09-06T06:30:58.071Z,6.80
2022-09-06T06:33:25.590Z,6.27
2022-09-06T06:36:03.326Z,6.27
2022-09-06T06:38:31.827Z,6.30
2022-09-06T06:41:04.431Z,6.67
2022-09-06T06:43:34.570Z,7.10
2022-09-06T06:46:23.807Z,6.33
2022-09-06T06:48:54.671Z,7.00
2022-09-06T06:51:24.113Z,7.83
2022-09-06T06:53:51.787Z,5.77
2022-09-06T06:56:22.414Z,6.10
2022-09-06T06:58:50.863Z,6.00
2022-09-06T07:01:19.175Z,6.90
2022-09-06T07:03:47.050Z,6.20
2022-09-06T07:06:15.485Z,6.60
2022-09-06T07:08:43.626Z,6.53
2022-09-06T07:11:12.382Z,6.33
2022-09-06T07:13:40.096Z,6.40
2022-09-06T07:16:09.067Z,6.03
2022-09-06T07:18:36.857Z,6.80
2022-09-06T07:24:08.431Z,6.13
2022-09-06T07:26:37.727Z,6.53
2022-09-06T07:29:06.285Z,5.87
2022-09-06T07:34:21.849Z,6.63
2022-09-06T07:36:49.373Z,5.77
2022-09-06T07:39:16.942Z,7.17
2022-09-06T07:41:44.448Z,6.20
2022-09-06T07:44:11.973Z,6.40
2022-09-06T07:46:39.680Z,6.03
2022-09-06T07:49:07.294Z,6.47
2022-09-06T07:51:34.812Z,6.10
2022-09-06T07:54:28.349Z,5.80
2022-09-06T07:56:50.016Z,6.60
2022-09-06T07:59:17.624Z,5.60
2022-09-06T08:01:45.136Z,6.23
2022-09-06T08:04:13.744Z,5.00
2022-09-06T08:09:30.730Z,5.00
2022-09-06T08:11:58.394Z,4.30
2022-09-06T08:14:25.927Z,4.00
2022-09-06T08:16:53.591Z,3.70
2022-09-06T08:19:21.296Z,3.40
2022-09-06T08:21:48.803Z,3.43
2022-09-06T08:24:16.347Z,2.97
2022-09-06T08:26:43.980Z,2.80
2022-09-06T08:29:11.955Z,2.30
2022-09-06T08:31:41.008Z,2.60
2022-09-06T08:34:08.946Z,2.70
2022-09-06T08:36:36.498Z,2.93
2022-09-06T08:39:05.757Z,2.60
2022-09-06T08:41:51.850Z,3.53
2022-09-06T08:47:11.654Z,2.50
2022-09-06T08:49:42.195Z,2.20
2022-09-06T08:52:12.951Z,2.33
2022-09-06T08:54:54.573Z,2.03
2022-09-06T08:57:40.496Z,2.60
2022-09-06T09:00:11.019Z,1.83
2022-09-06T09:02:42.932Z,2.20
2022-09-06T09:05:16.825Z,2.00
2022-09-06T09:07:45.830Z,1.90
2022-09-06T09:10:16.358Z,1.73
2022-09-06T09:12:48.662Z,1.60
2022-09-06T09:15:17.827Z,2.33
2022-09-06T09:17:46.203Z,1.63
2022-09-06T09:20:13.976Z,1.60
2022-09-06T09:22:42.574Z,1.80
2022-09-06T09:25:13.166Z,1.70
2022-09-06T09:27:40.791Z,1.70
2022-09-06T09:32:56.309Z,1.73
2022-09-06T09:35:30.094Z,1.63
2022-09-06T09:38:07.772Z,1.50
2022-09-06T09:40:57.415Z,1.77
2022-09-06T09:43:26.151Z,1.83
2022-09-06T09:46:09.221Z,1.63
2022-09-06T09:48:36.937Z,1.67
2022-09-06T09:51:23.933Z,1.50
2022-09-06T09:53:55.507Z,2.00
2022-09-06T09:56:27.556Z,1.90
2022-09-06T09:58:56.240Z,1.90
2022-09-06T10:01:26.969Z,1.60
2022-09-06T10:09:42.003Z,1.47
2022-09-06T10:12:14.217Z,1.70
2022-09-06T10:14:46.360Z,1.63
2022-09-06T10:17:21.262Z,1.30
2022-09-06T10:19:49.162Z,2.17
2022-09-06T10:22:22.552Z,1.30
2022-09-06T10:25:02.046Z,2.10
2022-09-06T10:27:29.577Z,1.80
2022-09-06T10:30:04.750Z,1.50
2022-09-06T10:32:51.028Z,1.60
2022-09-06T10:35:21.426Z,1.80
2022-09-06T10:37:51.687Z,1.73
2022-09-06T10:40:34.010Z,1.70
2022-09-06T10:43:01.692Z,1.73
2022-09-06T10:45:29.214Z,1.60
2022-09-06T10:48:06.229Z,2.10
2022-09-06T10:50:37.337Z,1.70
2022-09-06T10:53:25.819Z,1.77
2022-09-06T10:56:03.714Z,1.80
2022-09-06T11:01:41.919Z,1.50
2022-09-06T11:04:12.833Z,2.00
2022-09-06T11:06:49.427Z,1.80
2022-09-06T11:09:31.979Z,1.63
2022-09-06T11:12:19.717Z,1.90
2022-09-06T11:14:47.242Z,2.00
2022-09-06T11:17:20.873Z,1.77
2022-09-06T11:19:51.501Z,1.77
2022-09-06T11:22:37.735Z,1.47
2022-09-06T11:25:29.735Z,1.67
2022-09-06T11:28:00.440Z,1.60
2022-09-06T11:30:29.769Z,1.70
2022-09-06T11:33:09.350Z,1.73
2022-09-06T11:35:43.504Z,1.57
2022-09-06T11:38:17.089Z,1.63
2022-09-06T11:40:48.880Z,1.20
2022-09-06T11:43:18.845Z,1.50
2022-09-06T11:45:48.008Z,1.37
2022-09-06T11:48:24.841Z,1.30
2022-09-06T11:50:55.780Z,1.53
2022-09-06T11:53:24.486Z,1.40
2022-09-06T11:56:00.827Z,1.60
2022-09-06T11:58:31.116Z,1.50
2022-09-06T12:01:13.970Z,1.60
2022-09-06T12:04:09.973Z,1.40
2022-09-06T12:06:39.551Z,1.40
2022-09-06T12:09:26.000Z,1.50
2022-09-06T12:11:53.692Z,1.20
2022-09-06T12:14:31.986Z,1.30
2022-09-06T12:17:01.223Z,1.60
2022-09-06T12:19:50.440Z,1.73
2022-09-06T12:22:29.646Z,1.43
2022-09-06T12:24:58.234Z,1.90
2022-09-06T12:27:26.449Z,1.43
2022-09-06T12:29:58.501Z,1.37
2022-09-06T12:32:48.309Z,1.47
2022-09-06T12:38:15.091Z,1.40
2022-09-06T12:40:47.615Z,1.60
2022-09-06T12:43:17.436Z,1.70
2022-09-06T12:45:50.072Z,1.40
2022-09-06T12:48:29.677Z,1.40
2022-09-06T12:51:08.874Z,1.10
2022-09-06T12:53:36.296Z,1.37
2022-09-06T12:56:09.123Z,2.27
2022-09-06T12:58:36.930Z,1.63
2022-09-06T13:01:19.979Z,1.23
2022-09-06T13:04:11.324Z,1.30
2022-09-06T13:06:42.887Z,1.23
2022-09-06T13:09:17.572Z,1.30
2022-09-06T13:11:48.962Z,1.20
2022-09-06T13:14:26.957Z,1.47
2022-09-06T13:16:55.266Z,1.40
2022-09-06T13:19:34.745Z,1.20
2022-09-06T13:22:04.011Z,1.60
2022-09-06T13:24:44.639Z,1.27
2022-09-06T13:27:27.705Z,1.10
2022-09-06T13:29:57.484Z,1.00
2022-09-06T13:32:26.653Z,0.90
2022-09-06T13:34:54.463Z,1.20
2022-09-06T13:37:21.690Z,1.00
2022-09-06T13:39:48.962Z,1.00
2022-09-06T13:42:31.504Z,1.17
2022-09-06T13:45:16.730Z,0.80
2022-09-06T13:47:43.916Z,0.87
2022-09-06T13:50:11.314Z,0.77
2022-09-06T13:52:38.611Z,0.90
2022-09-06T13:55:06.398Z,1.00
2022-09-06T13:57:33.618Z,0.73
2022-09-06T14:00:00.973Z,1.00
2022-09-06T14:02:28.412Z,1.30
2022-09-06T14:04:55.707Z,0.90
2022-09-06T14:07:23.101Z,0.93
2022-09-06T14:09:50.424Z,1.00
2022-09-06T14:12:20.816Z,1.00
2022-09-06T14:14:48.054Z,1.40
2022-09-06T14:17:15.566Z,0.90
2022-09-06T14:19:42.868Z,1.10
2022-09-06T14:22:10.165Z,1.23
2022-09-06T14:24:37.616Z,1.20
2022-09-06T14:27:05.906Z,6.87
2022-09-06T14:29:33.698Z,1.00
2022-09-06T14:32:01.162Z,1.40
2022-09-06T14:34:28.620Z,14.37
2022-09-06T14:36:55.825Z,2.07
2022-09-06T14:39:23.052Z,1.27
2022-09-06T14:41:50.281Z,1.13
2022-09-06T14:44:17.544Z,11.53
2022-09-06T14:46:44.824Z,1.40
2022-09-06T14:49:12.308Z,1.50
2022-09-06T14:51:39.577Z,1.50
2022-09-06T14:54:12.520Z,1.10
2022-09-06T14:56:41.165Z,1.60
2022-09-06T14:59:08.863Z,1.67
2022-09-06T15:01:38.499Z,1.27
2022-09-06T15:04:08.634Z,1.30
2022-09-06T15:06:37.932Z,1.70
2022-09-06T15:09:05.224Z,1.20
2022-09-06T15:11:47.968Z,1.20
2022-09-06T15:14:23.694Z,1.10
2022-09-06T15:16:55.877Z,1.23
2022-09-06T15:19:28.400Z,1.57
2022-09-06T15:21:56.758Z,1.37
2022-09-06T15:24:24.318Z,3.45
2022-09-06T15:26:51.582Z,2.07
2022-09-06T15:29:18.772Z,1.33
2022-09-06T15:31:47.804Z,1.50
2022-09-06T15:34:15.090Z,0.87
2022-09-06T15:36:42.382Z,1.20
2022-09-06T15:39:09.719Z,1.10
2022-09-06T15:41:38.085Z,1.10
2022-09-06T15:44:09.772Z,1.40
2022-09-06T15:46:56.199Z,1.17
2022-09-06T15:49:29.166Z,0.93
2022-09-06T15:51:59.199Z,1.08
2022-09-06T15:54:27.604Z,0.90
2022-09-06T15:56:54.867Z,1.20
2022-09-06T15:59:22.186Z,0.90
2022-09-06T16:01:49.455Z,1.37
2022-09-06T16:04:16.771Z,1.07
2022-09-06T16:06:43.991Z,0.97
2022-09-06T16:09:13.522Z,1.10
2022-09-06T16:11:41.796Z,1.50
2022-09-06T16:14:11.964Z,1.20
2022-09-06T16:16:39.378Z,1.20
2022-09-06T16:19:07.367Z,1.40
2022-09-06T16:21:37.448Z,1.20
2022-09-06T16:24:07.310Z,1.37
2022-09-06T16:26:43.041Z,1.20
2022-09-06T16:29:12.532Z,1.10
2022-09-06T16:31:40.829Z,1.10
2022-09-06T16:34:12.411Z,1.30
2022-09-06T16:36:40.409Z,0.90
2022-09-06T16:39:08.530Z,1.33
2022-09-06T16:41:41.350Z,1.00
2022-09-06T16:44:09.839Z,1.00
2022-09-06T16:46:37.337Z,0.93
2022-09-06T16:49:04.678Z,0.90
2022-09-06T16:51:32.056Z,1.07
2022-09-06T16:54:00.523Z,1.00
2022-09-06T16:56:31.105Z,2.27
2022-09-06T16:59:00.747Z,0.97
2022-09-06T17:01:30.069Z,0.97
2022-09-06T17:03:57.821Z,1.20
2022-09-06T17:06:25.179Z,0.90
2022-09-06T17:08:52.450Z,1.00
2022-09-06T17:11:21.778Z,1.10
2022-09-06T17:13:50.752Z,1.23
2022-09-06T17:16:22.309Z,1.03
2022-09-06T17:18:51.178Z,1.37
2022-09-06T17:21:18.467Z,1.00
2022-09-06T17:23:45.738Z,1.20
2022-09-06T17:26:13.606Z,1.10
2022-09-06T17:28:41.161Z,1.27
2022-09-06T17:31:08.813Z,1.10
2022-09-06T17:33:36.596Z,1.10
2022-09-06T17:36:06.685Z,1.00
2022-09-06T17:38:34.442Z,1.73
2022-09-06T17:41:04.747Z,1.43
2022-09-06T17:43:32.328Z,1.47
2022-09-06T17:45:59.862Z,1.20
2022-09-06T17:48:30.028Z,1.33
2022-09-06T17:51:05.533Z,1.17
2022-09-06T17:53:33.988Z,1.00
2022-09-06T17:56:08.918Z,1.00
2022-09-06T17:58:37.338Z,1.40
2022-09-06T18:01:05.588Z,1.50
2022-09-06T18:03:33.578Z,1.40
2022-09-06T18:06:11.740Z,1.93
2022-09-06T18:08:40.698Z,1.47
2022-09-06T18:11:18.867Z,2.23
2022-09-06T18:13:46.687Z,1.83
2022-09-06T18:16:14.802Z,2.20
2022-09-06T18:18:42.607Z,2.80
2022-09-06T18:21:10.220Z,2.87
2022-09-06T18:23:37.819Z,1.63
2022-09-06T18:26:06.317Z,2.40
2022-09-06T18:28:34.798Z,1.70
2022-09-06T18:31:06.962Z,1.30
2022-09-06T18:33:34.733Z,1.23
2022-09-06T18:36:02.917Z,2.00
2022-09-06T18:38:30.510Z,1.20
2022-09-06T18:40:59.398Z,1.90
2022-09-06T18:43:31.148Z,1.50
2022-09-06T18:46:02.878Z,1.30
2022-09-06T18:48:31.045Z,1.80
2022-09-06T18:51:04.065Z,2.27
2022-09-06T18:53:31.790Z,1.50
2022-09-06T18:55:59.427Z,2.10
2022-09-06T18:58:26.812Z,2.27
2022-09-06T19:01:01.164Z,3.73
2022-09-06T19:03:28.585Z,2.40
2022-09-06T19:05:55.949Z,2.97
2022-09-06T19:08:23.446Z,3.20
2022-09-06T19:11:03.089Z,3.10
2022-09-06T19:13:30.419Z,2.87
2022-09-06T19:15:58.428Z,2.70
2022-09-06T19:18:27.008Z,2.93
2022-09-06T19:21:05.665Z,2.50
2022-09-06T19:23:35.255Z,2.10
2022-09-06T19:26:05.750Z,2.23
2022-09-06T19:28:33.575Z,1.47
2022-09-06T19:31:08.613Z,1.93
2022-09-06T19:33:36.491Z,2.27
2022-09-06T19:36:11.652Z,2.30
2022-09-06T19:41:29.653Z,2.47
2022-09-06T19:43:58.170Z,1.90
2022-09-06T19:46:26.478Z,2.23
2022-09-06T19:48:54.937Z,2.50
2022-09-06T19:51:22.334Z,2.50
2022-09-06T19:53:52.078Z,2.80
2022-09-06T19:56:21.789Z,2.10
2022-09-06T19:58:54.494Z,2.33
2022-09-06T20:01:22.576Z,1.90
2022-09-06T20:03:53.927Z,2.00
2022-09-06T20:06:21.938Z,1.90
2022-09-06T20:08:55.104Z,2.17
2022-09-06T20:11:25.164Z,2.40
2022-09-06T20:13:52.731Z,2.23
2022-09-06T20:16:21.331Z,2.37
2022-09-06T20:18:54.030Z,1.80
2022-09-06T20:21:21.583Z,1.80
2022-09-06T20:23:54.884Z,2.27
2022-09-06T20:26:23.291Z,1.90
2022-09-06T20:28:57.865Z,2.10
2022-09-06T20:31:26.102Z,2.07
2022-09-06T20:33:53.739Z,2.20
2022-09-06T20:36:21.257Z,1.90
2022-09-06T20:38:49.143Z,1.73
2022-09-06T20:41:17.816Z,1.80
2022-09-06T20:43:45.581Z,1.80
2022-09-06T20:46:17.305Z,1.70
2022-09-06T20:48:46.044Z,2.00
2022-09-06T20:51:15.726Z,2.27
2022-09-06T20:53:43.288Z,1.50
2022-09-06T20:56:14.825Z,1.50
2022-09-06T20:58:46.702Z,1.50
2022-09-06T21:01:15.255Z,1.60
2022-09-06T21:03:47.025Z,2.20
2022-09-06T21:06:14.840Z,1.83
2022-09-06T21:08:43.243Z,1.63
2022-09-06T21:11:10.932Z,1.70
2022-09-06T21:13:38.921Z,2.00
2022-09-06T21:16:06.914Z,1.37
2022-09-06T21:18:34.973Z,1.60
2022-09-06T21:21:03.854Z,1.70
2022-09-06T21:23:33.028Z,1.30
2022-09-06T21:26:07.839Z,1.50
2022-09-06T21:28:36.451Z,1.33
2022-09-06T21:31:09.079Z,1.43
2022-09-06T21:33:37.532Z,1.40
2022-09-06T21:36:06.623Z,1.10
2022-09-06T21:38:35.196Z,1.30
2022-09-06T21:41:02.951Z,1.30
2022-09-06T21:43:30.555Z,1.23
2022-09-06T21:46:01.584Z,1.23
2022-09-06T21:48:29.280Z,1.20
2022-09-06T21:50:57.139Z,1.00
2022-09-06T21:53:24.664Z,2.57
2022-09-06T21:55:52.475Z,1.27
2022-09-06T21:58:20.131Z,1.23
2022-09-06T22:00:52.425Z,1.30
2022-09-06T22:03:20.238Z,1.20
2022-09-06T22:05:47.730Z,1.10
2022-09-06T22:08:15.334Z,1.20
2022-09-06T22:10:42.881Z,1.40
2022-09-06T22:13:10.624Z,1.23
2022-09-06T22:15:41.291Z,1.67
2022-09-06T22:18:08.942Z,1.23
2022-09-06T22:20:37.060Z,1.20
2022-09-06T22:23:05.297Z,1.10
2022-09-06T22:25:33.228Z,1.10
2022-09-06T22:28:00.734Z,1.40
2022-09-06T22:30:28.229Z,1.00
2022-09-06T22:32:55.772Z,1.30
2022-09-06T22:35:23.263Z,1.30
2022-09-06T22:37:50.940Z,0.77
2022-09-06T22:40:18.777Z,1.50
2022-09-06T22:42:46.290Z,1.10
2022-09-06T22:45:13.805Z,1.07
2022-09-06T22:47:41.289Z,0.80
2022-09-06T22:50:09.063Z,1.03
2022-09-06T22:52:36.607Z,0.80
2022-09-06T22:55:04.188Z,0.80
2022-09-06T22:57:31.727Z,0.93
2022-09-06T22:59:59.314Z,0.90
2022-09-06T23:02:27.005Z,1.03
2022-09-06T23:04:55.789Z,0.77
2022-09-06T23:07:23.606Z,1.10
2022-09-06T23:09:51.082Z,0.73
2022-09-06T23:12:18.827Z,0.80
2022-09-06T23:14:46.309Z,0.90
2022-09-06T23:17:13.575Z,1.93
2022-09-06T23:19:41.257Z,1.97
2022-09-06T23:22:08.655Z,1.50
2022-09-06T23:24:35.852Z,1.20
2022-09-06T23:27:03.255Z,1.07
2022-09-06T23:29:31.985Z,1.60
2022-09-06T23:31:59.222Z,1.20
2022-09-06T23:34:26.697Z,1.50
2022-09-06T23:36:53.946Z,1.60
2022-09-06T23:39:21.139Z,1.57
2022-09-06T23:41:48.411Z,1.80
2022-09-06T23:44:15.562Z,1.27
2022-09-06T23:46:42.873Z,1.20
2022-09-06T23:49:10.259Z,1.30
2022-09-06T23:51:37.648Z,1.60
2022-09-06T23:54:04.933Z,1.70
2022-09-06T23:56:32.695Z,1.40
2022-09-06T23:59:00.054Z,1.70
